createdAt,value
2022-09-10T00:01:31.818Z,15.01
2022-09-10T00:04:18.835Z,15.00
2022-09-10T00:07:04.171Z,15.06
2022-09-10T00:09:49.613Z,15.11
2022-09-10T00:12:35.016Z,15.12
2022-09-10T00:15:19.773Z,15.10
2022-09-10T00:18:04.777Z,15.08
2022-09-10T00:20:52.860Z,15.08
2022-09-10T00:23:39.265Z,15.12
2022-09-10T00:26:34.213Z,15.16
2022-09-10T00:29:19.135Z,15.25
2022-09-10T00:32:03.916Z,15.23
2022-09-10T00:34:48.668Z,15.10
2022-09-10T00:37:33.495Z,15.15
2022-09-10T00:40:18.340Z,15.20
2022-09-10T00:43:03.374Z,15.14
2022-09-10T00:45:55.008Z,15.22
2022-09-10T00:48:40.295Z,15.27
2022-09-10T00:51:27.930Z,15.20
2022-09-10T00:54:14.901Z,15.22
2022-09-10T00:57:05.851Z,15.31
2022-09-10T00:59:55.941Z,15.31
2022-09-10T01:02:41.557Z,15.34
2022-09-10T01:05:26.853Z,15.36
2022-09-10T01:08:16.124Z,15.39
2022-09-10T01:11:07.166Z,15.34
2022-09-10T01:14:23.964Z,15.31
2022-09-10T01:17:17.835Z,15.32
2022-09-10T01:20:14.014Z,15.33
2022-09-10T01:23:05.245Z,15.28
2022-09-10T01:26:23.747Z,15.27
2022-09-10T01:29:28.112Z,15.16
2022-09-10T01:32:21.638Z,15.02
2022-09-10T01:35:23.093Z,14.99
2022-09-10T01:38:21.289Z,14.99
2022-09-10T01:41:06.472Z,15.01
2022-09-10T01:43:51.404Z,15.06
2022-09-10T01:46:59.359Z,15.02
2022-09-10T01:49:47.317Z,15.03
2022-09-10T01:52:47.139Z,14.96
2022-09-10T01:55:41.399Z,14.97
2022-09-10T01:58:37.883Z,14.98
2022-09-10T02:01:31.913Z,15.03
2022-09-10T02:04:19.229Z,15.07
2022-09-10T02:07:06.346Z,15.08
2022-09-10T02:09:52.525Z,15.11
2022-09-10T02:12:37.502Z,15.12
2022-09-10T02:15:26.753Z,15.23
2022-09-10T02:18:12.737Z,15.24
2022-09-10T02:20:59.787Z,15.19
2022-09-10T02:23:48.159Z,15.14
2022-09-10T02:26:34.374Z,15.15
2022-09-10T02:29:19.628Z,15.27
2022-09-10T02:32:06.043Z,15.34
2022-09-10T02:34:50.970Z,15.27
2022-09-10T02:37:36.557Z,15.31
2022-09-10T02:40:21.601Z,15.37
2022-09-10T02:43:06.386Z,15.30
2022-09-10T02:45:55.283Z,15.20
2022-09-10T02:48:40.638Z,15.22
2022-09-10T02:51:26.121Z,15.27
2022-09-10T02:54:11.034Z,15.32
2022-09-10T02:56:56.628Z,15.24
2022-09-10T02:59:41.702Z,15.28
2022-09-10T03:02:26.564Z,15.21
2022-09-10T03:05:11.411Z,15.14
2022-09-10T03:07:56.859Z,15.12
2022-09-10T03:10:42.429Z,15.01
2022-09-10T03:13:28.098Z,15.06
2022-09-10T03:16:13.469Z,15.05
2022-09-10T03:18:58.589Z,15.07
2022-09-10T03:21:43.437Z,14.96
2022-09-10T03:24:28.376Z,14.83
2022-09-10T03:27:13.722Z,14.74
2022-09-10T03:29:58.708Z,14.63
2022-09-10T03:32:43.545Z,14.51
2022-09-10T03:35:28.411Z,14.54
2022-09-10T03:38:13.141Z,14.59
2022-09-10T03:40:58.140Z,14.54
2022-09-10T03:43:43.300Z,14.51
2022-09-10T03:46:28.353Z,14.51
2022-09-10T03:49:13.286Z,14.50
2022-09-10T03:51:58.591Z,14.47
2022-09-10T03:54:43.458Z,14.41
2022-09-10T03:57:28.254Z,14.42
2022-09-10T04:00:14.007Z,14.38
2022-09-10T04:02:59.445Z,14.32
2022-09-10T04:05:44.586Z,14.27
2022-09-10T04:08:29.520Z,14.31
2022-09-10T04:11:14.469Z,14.37
2022-09-10T04:13:59.374Z,14.36
2022-09-10T04:16:44.228Z,14.50
2022-09-10T04:19:29.292Z,14.50
2022-09-10T04:22:14.038Z,14.49
2022-09-10T04:24:58.891Z,14.46
2022-09-10T04:27:43.725Z,14.42
2022-09-10T04:30:28.634Z,14.42
2022-09-10T04:33:13.784Z,14.45
2022-09-10T04:35:59.193Z,14.43
2022-09-10T04:38:44.533Z,14.45
2022-09-10T04:41:29.342Z,14.53
2022-09-10T04:44:14.212Z,14.54
2022-09-10T04:46:59.121Z,14.58
2022-09-10T04:49:44.320Z,14.64
2022-09-10T04:52:29.501Z,14.69
2022-09-10T04:55:14.495Z,14.71
2022-09-10T04:57:59.749Z,14.72
2022-09-10T05:00:44.584Z,14.67
2022-09-10T05:03:29.454Z,14.61
2022-09-10T05:06:14.381Z,14.60
2022-09-10T05:08:59.476Z,14.58
2022-09-10T05:11:44.547Z,14.60
2022-09-10T05:14:30.339Z,14.60
2022-09-10T05:17:15.513Z,14.58
2022-09-10T05:20:00.655Z,14.60
2022-09-10T05:22:46.207Z,14.57
2022-09-10T05:25:31.569Z,14.64
2022-09-10T05:28:16.973Z,14.63
2022-09-10T05:31:02.284Z,14.66
2022-09-10T05:33:47.626Z,14.65
2022-09-10T05:36:32.731Z,14.70
2022-09-10T05:39:18.031Z,14.72
2022-09-10T05:42:03.321Z,14.68
2022-09-10T05:44:48.551Z,14.71
2022-09-10T05:47:33.677Z,14.75
2022-09-10T05:50:19.207Z,14.86
2022-09-10T05:53:04.429Z,14.85
2022-09-10T05:55:49.788Z,14.94
2022-09-10T05:58:34.833Z,15.06
2022-09-10T06:01:20.054Z,15.10
2022-09-10T06:04:05.404Z,15.22
2022-09-10T06:06:50.375Z,15.32
2022-09-10T06:09:36.216Z,15.38
2022-09-10T06:12:21.626Z,15.34
2022-09-10T06:15:06.885Z,15.45
2022-09-10T06:17:51.927Z,15.42
2022-09-10T06:20:36.870Z,15.48
2022-09-10T06:23:21.613Z,15.41
2022-09-10T06:26:12.207Z,15.43
2022-09-10T06:28:57.421Z,15.42
2022-09-10T06:31:42.380Z,15.40
2022-09-10T06:34:27.556Z,15.35
2022-09-10T06:37:12.876Z,15.38
2022-09-10T06:39:57.855Z,15.31
2022-09-10T06:42:44.357Z,15.27
2022-09-10T06:45:29.718Z,15.20
2022-09-10T06:51:20.053Z,15.06
2022-09-10T06:54:06.091Z,15.09
2022-09-10T06:56:51.237Z,15.15
2022-09-10T06:59:36.099Z,15.17
2022-09-10T07:02:20.952Z,15.23
2022-09-10T07:05:06.694Z,15.32
2022-09-10T07:07:51.905Z,15.33
2022-09-10T07:10:37.137Z,15.25
2022-09-10T07:13:22.430Z,15.34
2022-09-10T07:16:07.834Z,15.40
2022-09-10T07:18:56.182Z,15.31
2022-09-10T07:21:41.167Z,15.29
2022-09-10T07:24:26.719Z,15.33
2022-09-10T07:27:11.849Z,15.37
2022-09-10T07:29:57.091Z,15.34
2022-09-10T07:32:42.194Z,15.27
2022-09-10T07:35:27.376Z,15.28
2022-09-10T07:38:13.365Z,15.37
2022-09-10T07:41:01.893Z,15.45
2022-09-10T07:43:46.797Z,15.53
2022-09-10T07:46:32.271Z,15.62
2022-09-10T07:49:17.229Z,15.54
2022-09-10T07:52:03.761Z,15.46
2022-09-10T07:54:48.971Z,15.51
2022-09-10T07:57:37.667Z,15.48
2022-09-10T08:00:23.097Z,15.67
2022-09-10T08:03:11.001Z,15.73
2022-09-10T08:06:00.784Z,15.66
2022-09-10T08:08:45.680Z,15.78
2022-09-10T08:11:30.659Z,16.04
2022-09-10T08:14:16.054Z,16.58
2022-09-10T08:17:00.873Z,16.33
2022-09-10T08:19:45.705Z,16.40
2022-09-10T08:22:30.594Z,16.55
2022-09-10T08:25:16.388Z,16.50
2022-09-10T08:28:01.665Z,16.35
2022-09-10T08:31:01.658Z,16.35
2022-09-10T08:33:52.009Z,16.44
2022-09-10T08:36:36.956Z,16.30
2022-09-10T08:39:22.053Z,16.24
2022-09-10T08:42:42.621Z,16.20
2022-09-10T08:45:31.938Z,16.17
2022-09-10T08:48:23.405Z,16.24
2022-09-10T08:51:16.964Z,16.39
2022-09-10T08:54:07.678Z,16.93
2022-09-10T08:56:56.494Z,17.40
2022-09-10T08:59:45.172Z,17.21
2022-09-10T09:02:52.911Z,17.13
2022-09-10T09:06:07.453Z,16.79
2022-09-10T09:08:53.548Z,16.91
2022-09-10T09:12:05.124Z,17.23
2022-09-10T09:15:24.053Z,17.03
2022-09-10T09:18:32.714Z,16.96
2022-09-10T09:21:24.123Z,17.11
2022-09-10T09:24:21.530Z,17.06
2022-09-10T09:27:14.460Z,17.01
2022-09-10T09:30:03.977Z,16.91
2022-09-10T09:32:50.385Z,17.02
2022-09-10T09:35:46.042Z,17.05
2022-09-10T09:38:40.310Z,17.20
2022-09-10T09:41:57.813Z,17.33
2022-09-10T09:44:57.382Z,17.23
2022-09-10T09:47:46.273Z,17.26
2022-09-10T09:50:32.387Z,17.63
2022-09-10T09:53:22.800Z,17.82
2022-09-10T09:56:37.393Z,17.64
2022-09-10T09:59:33.050Z,17.53
2022-09-10T10:02:23.845Z,17.22
2022-09-10T10:05:25.811Z,17.34
2022-09-10T10:08:44.583Z,17.36
2022-09-10T10:11:49.886Z,17.40
2022-09-10T10:14:37.726Z,17.27
2022-09-10T10:17:22.829Z,17.42
2022-09-10T10:20:31.237Z,17.27
2022-09-10T10:23:34.748Z,17.51
2022-09-10T10:26:19.777Z,17.75
2022-09-10T10:29:23.114Z,18.12
2022-09-10T10:32:16.495Z,18.21
2022-09-10T10:35:11.315Z,18.40
2022-09-10T10:38:17.173Z,18.40
2022-09-10T10:41:24.262Z,18.26
2022-09-10T10:44:51.877Z,18.25
2022-09-10T10:48:04.692Z,18.20
2022-09-10T10:51:04.715Z,18.15
2022-09-10T10:54:11.764Z,17.99
2022-09-10T10:57:07.255Z,18.10
2022-09-10T11:00:01.930Z,18.19
2022-09-10T11:03:11.756Z,18.00
2022-09-10T11:06:07.684Z,17.86
2022-09-10T11:09:05.987Z,17.65
2022-09-10T11:12:01.069Z,17.55
2022-09-10T11:15:01.618Z,17.58
2022-09-10T11:17:54.478Z,17.49
2022-09-10T11:20:50.565Z,17.51
2022-09-10T11:24:06.332Z,17.57
2022-09-10T11:26:54.843Z,17.57
2022-09-10T11:29:40.312Z,17.68
2022-09-10T11:32:40.149Z,17.63
2022-09-10T11:35:25.387Z,17.63
2022-09-10T11:38:27.718Z,17.65
2022-09-10T11:41:22.305Z,17.83
2022-09-10T11:44:22.366Z,17.99
2022-09-10T11:47:26.571Z,18.14
2022-09-10T11:50:37.521Z,18.11
2022-09-10T11:53:24.924Z,18.05
2022-09-10T11:56:35.712Z,18.27
2022-09-10T11:59:58.988Z,18.43
2022-09-10T12:03:11.263Z,18.18
2022-09-10T12:06:06.981Z,18.28
2022-09-10T12:09:10.811Z,18.32
2022-09-10T12:12:22.591Z,18.25
2022-09-10T12:15:22.037Z,18.13
2022-09-10T12:18:15.347Z,18.25
2022-09-10T12:21:13.795Z,18.09
2022-09-10T12:24:03.373Z,18.11
2022-09-10T12:26:49.031Z,18.12
2022-09-10T12:29:35.774Z,18.33
2022-09-10T12:32:20.865Z,18.37
2022-09-10T12:35:32.102Z,18.35
2022-09-10T12:39:02.111Z,18.50
2022-09-10T12:41:46.970Z,18.52
2022-09-10T12:44:35.261Z,18.60
2022-09-10T12:47:30.345Z,18.52
2022-09-10T12:50:31.289Z,18.63
2022-09-10T12:53:37.186Z,18.49
2022-09-10T12:56:56.509Z,18.64
2022-09-10T13:00:05.952Z,18.60
2022-09-10T13:03:00.088Z,18.82
2022-09-10T13:05:44.919Z,18.83
2022-09-10T13:08:40.088Z,18.56
2022-09-10T13:11:26.019Z,18.25
2022-09-10T13:14:19.261Z,18.24
2022-09-10T13:17:04.756Z,18.21
2022-09-10T13:19:51.009Z,18.29
2022-09-10T13:23:08.229Z,18.31
2022-09-10T13:26:13.140Z,18.36
2022-09-10T13:28:58.224Z,18.43
2022-09-10T13:31:46.028Z,18.36
2022-09-10T13:34:42.681Z,18.37
2022-09-10T13:37:43.081Z,18.50
2022-09-10T13:40:34.021Z,18.49
2022-09-10T13:43:47.067Z,18.43
2022-09-10T13:46:40.340Z,18.31
2022-09-10T13:49:37.623Z,18.28
2022-09-10T13:52:33.617Z,18.18
2022-09-10T13:55:28.587Z,18.21
2022-09-10T13:58:17.860Z,18.19
2022-09-10T14:01:04.931Z,18.15
2022-09-10T14:03:50.234Z,18.03
2022-09-10T14:06:36.085Z,18.12
2022-09-10T14:09:22.250Z,18.07
2022-09-10T14:12:08.921Z,18.11
2022-09-10T14:14:57.124Z,18.00
2022-09-10T14:17:47.281Z,17.89
2022-09-10T14:20:34.474Z,17.45
2022-09-10T14:23:20.322Z,17.03
2022-09-10T14:26:20.393Z,16.97
2022-09-10T14:29:25.167Z,16.92
2022-09-10T14:32:18.395Z,16.86
2022-09-10T14:35:38.732Z,16.82
2022-09-10T14:38:29.772Z,16.89
2022-09-10T14:41:24.258Z,16.97
2022-09-10T14:44:28.664Z,17.00
2022-09-10T14:47:23.101Z,16.99
2022-09-10T14:50:29.927Z,17.03
2022-09-10T14:53:15.121Z,17.16
2022-09-10T14:56:00.520Z,17.28
2022-09-10T14:58:45.890Z,17.37
2022-09-10T15:01:31.901Z,17.58
2022-09-10T15:04:19.417Z,17.76
2022-09-10T15:07:04.810Z,18.03
2022-09-10T15:09:50.041Z,17.88
2022-09-10T15:12:38.489Z,18.09
2022-09-10T15:15:23.371Z,18.34
2022-09-10T15:18:12.774Z,18.27
2022-09-10T15:21:01.046Z,18.20
2022-09-10T15:23:46.085Z,18.27
2022-09-10T15:26:31.139Z,18.12
2022-09-10T15:29:17.185Z,18.13
2022-09-10T15:32:02.595Z,18.21
2022-09-10T15:34:47.714Z,18.25
2022-09-10T15:37:32.843Z,18.24
2022-09-10T15:40:18.098Z,18.29
2022-09-10T15:43:03.020Z,18.35
2022-09-10T15:45:48.378Z,18.31
2022-09-10T15:48:33.904Z,18.24
2022-09-10T15:51:21.447Z,17.98
2022-09-10T15:54:07.150Z,17.94
2022-09-10T15:56:52.650Z,17.94
2022-09-10T15:59:37.639Z,17.81
2022-09-10T16:02:22.902Z,17.81
2022-09-10T16:05:08.418Z,17.84
2022-09-10T16:07:53.314Z,17.85
2022-09-10T16:10:39.461Z,17.85
2022-09-10T16:13:25.833Z,17.76
2022-09-10T16:16:15.928Z,17.74
2022-09-10T16:19:01.420Z,17.53
2022-09-10T16:21:46.646Z,17.35
2022-09-10T16:24:32.639Z,17.41
2022-09-10T16:27:18.204Z,17.53
2022-09-10T16:30:03.839Z,17.56
2022-09-10T16:32:49.247Z,17.51
2022-09-10T16:35:35.110Z,17.52
2022-09-10T16:38:20.360Z,17.59
2022-09-10T16:41:06.879Z,17.75
2022-09-10T16:43:53.621Z,17.79
2022-09-10T16:46:39.500Z,17.82
2022-09-10T16:49:25.079Z,17.82
2022-09-10T16:52:10.185Z,17.82
2022-09-10T16:54:55.657Z,17.83
2022-09-10T16:57:43.406Z,17.66
2022-09-10T17:00:28.857Z,17.77
2022-09-10T17:03:14.091Z,17.73
2022-09-10T17:05:59.614Z,17.90
2022-09-10T17:08:45.614Z,17.94
2022-09-10T17:11:32.091Z,17.89
2022-09-10T17:14:17.284Z,17.87
2022-09-10T17:17:02.525Z,17.85
2022-09-10T17:19:48.191Z,17.96
2022-09-10T17:22:33.316Z,17.79
2022-09-10T17:25:18.566Z,17.88
2022-09-10T17:28:04.746Z,17.88
2022-09-10T17:30:55.206Z,17.86
2022-09-10T17:33:40.293Z,17.91
2022-09-10T17:36:26.646Z,17.85
2022-09-10T17:39:12.651Z,17.69
2022-09-10T17:41:57.642Z,17.78
2022-09-10T17:44:42.549Z,17.84
2022-09-10T17:47:28.065Z,17.73
2022-09-10T17:50:13.075Z,17.62
2022-09-10T17:52:57.984Z,17.57
2022-09-10T17:55:43.458Z,17.51
2022-09-10T17:58:28.403Z,17.43
2022-09-10T18:01:25.955Z,17.42
2022-09-10T18:04:12.211Z,17.20
2022-09-10T18:06:57.709Z,17.18
2022-09-10T18:09:42.814Z,17.20
2022-09-10T18:12:28.196Z,17.18
2022-09-10T18:15:13.115Z,17.07
2022-09-10T18:17:58.175Z,17.11
2022-09-10T18:20:43.077Z,17.23
2022-09-10T18:23:28.740Z,17.20
2022-09-10T18:26:15.959Z,17.21
2022-09-10T18:29:04.047Z,17.18
2022-09-10T18:31:51.961Z,17.10
2022-09-10T18:34:36.971Z,17.21
2022-09-10T18:37:22.325Z,17.23
2022-09-10T18:40:07.886Z,17.13
2022-09-10T18:42:53.036Z,16.95
2022-09-10T18:45:37.946Z,17.07
2022-09-10T18:48:22.752Z,17.10
2022-09-10T18:51:09.543Z,17.13
2022-09-10T18:53:59.992Z,17.05
2022-09-10T18:56:46.186Z,17.02
2022-09-10T18:59:31.405Z,17.10
2022-09-10T19:02:16.575Z,17.01
2022-09-10T19:05:11.249Z,16.90
2022-09-10T19:07:57.194Z,16.77
2022-09-10T19:10:42.142Z,16.75
2022-09-10T19:13:27.570Z,16.69
2022-09-10T19:16:12.945Z,16.65
2022-09-10T19:19:02.290Z,16.50
2022-09-10T19:21:49.846Z,16.52
2022-09-10T19:24:54.128Z,16.52
2022-09-10T19:27:40.174Z,16.48
2022-09-10T19:30:25.745Z,16.62
2022-09-10T19:33:11.128Z,16.70
2022-09-10T19:35:56.785Z,16.55
2022-09-10T19:38:42.391Z,16.63
2022-09-10T19:41:27.809Z,16.65
2022-09-10T19:44:14.563Z,16.73
2022-09-10T19:46:59.779Z,16.62
2022-09-10T19:49:44.674Z,16.62
2022-09-10T19:52:29.559Z,16.55
2022-09-10T19:55:14.502Z,16.65
2022-09-10T19:57:59.896Z,16.44
2022-09-10T20:00:47.041Z,16.41
2022-09-10T20:03:35.609Z,16.44
2022-09-10T20:06:23.089Z,16.46
2022-09-10T20:09:08.891Z,16.41
2022-09-10T20:11:54.129Z,16.39
2022-09-10T20:14:39.325Z,16.14
2022-09-10T20:17:24.212Z,16.11
2022-09-10T20:20:09.991Z,16.06
2022-09-10T20:22:54.793Z,16.03
2022-09-10T20:25:39.608Z,16.10
2022-09-10T20:28:25.055Z,16.32
2022-09-10T20:31:12.618Z,16.36
2022-09-10T20:34:03.671Z,16.39
2022-09-10T20:36:49.824Z,16.44
2022-09-10T20:39:35.066Z,16.43
2022-09-10T20:42:20.454Z,16.36
2022-09-10T20:45:06.117Z,16.12
2022-09-10T20:47:51.195Z,16.05
2022-09-10T20:50:36.589Z,15.97
2022-09-10T20:53:22.440Z,16.00
2022-09-10T20:56:11.172Z,15.96
2022-09-10T20:58:56.498Z,15.82
2022-09-10T21:01:42.880Z,15.79
2022-09-10T21:04:28.153Z,15.96
2022-09-10T21:07:13.176Z,15.76
2022-09-10T21:09:58.014Z,15.64
2022-09-10T21:12:42.950Z,15.49
2022-09-10T21:15:28.259Z,15.63
2022-09-10T21:18:13.356Z,15.51
2022-09-10T21:21:06.617Z,15.29
2022-09-10T21:24:02.515Z,15.46
2022-09-10T21:26:47.674Z,15.33
2022-09-10T21:29:33.879Z,15.07
2022-09-10T21:32:18.907Z,14.91
2022-09-10T21:35:04.064Z,14.79
2022-09-10T21:37:49.131Z,14.79
2022-09-10T21:40:33.968Z,14.79
2022-09-10T21:43:18.839Z,14.69
2022-09-10T21:46:05.781Z,14.78
2022-09-10T21:48:51.101Z,14.85
2022-09-10T21:51:36.848Z,14.94
2022-09-10T21:54:22.746Z,15.06
2022-09-10T21:57:07.610Z,15.14
2022-09-10T21:59:52.515Z,14.96
2022-09-10T22:02:37.365Z,14.91
2022-09-10T22:05:23.465Z,15.15
2022-09-10T22:08:08.620Z,15.32
2022-09-10T22:10:53.687Z,15.41
2022-09-10T22:13:39.128Z,15.28
2022-09-10T22:16:25.225Z,15.22
2022-09-10T22:19:22.122Z,15.17
2022-09-10T22:22:06.886Z,15.17
2022-09-10T22:24:52.528Z,15.25
2022-09-10T22:27:37.655Z,15.17
2022-09-10T22:30:22.520Z,15.24
2022-09-10T22:33:07.892Z,15.30
2022-09-10T22:35:52.610Z,15.36
2022-09-10T22:38:37.896Z,15.33
2022-09-10T22:41:23.269Z,15.30
2022-09-10T22:44:09.015Z,15.21
2022-09-10T22:46:54.333Z,15.20
2022-09-10T22:49:39.487Z,15.31
2022-09-10T22:52:24.553Z,15.41
2022-09-10T22:55:09.773Z,15.41
2022-09-10T22:57:54.938Z,15.39
2022-09-10T23:00:39.777Z,15.53
2022-09-10T23:03:24.746Z,15.52
2022-09-10T23:06:13.004Z,15.57
2022-09-10T23:09:04.133Z,15.65
2022-09-10T23:11:49.102Z,15.61
2022-09-10T23:14:34.495Z,15.67
2022-09-10T23:17:22.442Z,15.62
2022-09-10T23:20:08.060Z,15.64
2022-09-10T23:22:53.021Z,15.68
2022-09-10T23:25:38.217Z,15.73
2022-09-10T23:28:26.998Z,15.63
2022-09-10T23:31:18.561Z,15.67
2022-09-10T23:34:07.184Z,15.62
2022-09-10T23:36:52.655Z,15.47
2022-09-10T23:39:38.184Z,15.40
2022-09-10T23:42:23.401Z,15.32
2022-09-10T23:45:09.177Z,15.32
2022-09-10T23:47:54.310Z,15.31
2022-09-10T23:50:39.180Z,15.50
2022-09-10T23:53:25.147Z,15.30
2022-09-10T23:56:10.020Z,15.13
2022-09-10T23:58:56.557Z,15.17
